TimePDT,TemperatureF,Dew PointF,Humidity,Sea Level PressureIn,VisibilityMPH,Wind Direction,Wind SpeedMPH,Gust SpeedMPH,PrecipitationIn,Events,Conditions,WindDirDegrees,DateUTC
12:53 AM,48.9,45.0,86,30.22,0.5,NNE,4.6,-,N/A,,Overcast,20,2013-10-20 07:53:00
1:53 AM,48.9,45.0,86,30.22,0.5,North,5.8,-,N/A,Fog,Fog,350,2013-10-20 08:53:00
2:53 AM,48.0,45.0,89,30.22,0.2,North,6.9,-,N/A,Fog,Fog,350,2013-10-20 09:53:00
3:32 AM,46.4,44.6,93,30.20,0.2,NNW,4.6,-,N/A,Fog,Fog,340,2013-10-20 10:32:00
3:53 AM,46.9,44.1,90,30.22,0.2,NNW,4.6,-,N/A,Fog,Fog,340,2013-10-20 10:53:00
4:53 AM,46.9,44.1,90,30.22,0.2,NNE,5.8,-,N/A,Fog,Fog,30,2013-10-20 11:53:00
5:53 AM,46.9,44.1,90,30.22,0.2,North,3.5,-,N/A,Fog,Fog,10,2013-10-20 12:53:00
6:19 AM,46.4,44.6,93,30.20,0.2,NE,6.9,-,N/A,Fog,Fog,50,2013-10-20 13:19:00
6:53 AM,46.9,44.1,90,30.22,0.2,NE,4.6,-,N/A,Fog,Fog,50,2013-10-20 13:53:00
7:53 AM,46.9,44.1,90,30.23,0.2,NNE,3.5,-,N/A,Fog,Fog,30,2013-10-20 14:53:00
8:53 AM,46.0,44.1,93,30.24,0.2,NE,3.5,-,N/A,,Overcast,50,2013-10-20 15:53:00
9:53 AM,46.9,44.1,90,30.24,0.2,Calm,Calm,-,N/A,,Overcast,0,2013-10-20 16:53:00
10:53 AM,48.0,44.1,86,30.24,1.0,North,5.8,-,N/A,,Overcast,10,2013-10-20 17:53:00
11:10 AM,48.2,44.6,87,30.21,0.5,North,4.6,-,N/A,,Overcast,360,2013-10-20 18:10:00
11:53 AM,48.9,44.1,83,30.23,0.5,NNE,5.8,-,N/A,,Overcast,20,2013-10-20 18:53:00
12:25 PM,48.2,44.6,87,30.21,2.0,NNE,6.9,-,N/A,,Overcast,20,2013-10-20 19:25:00
12:53 PM,48.9,45.0,86,30.23,2.0,North,4.6,-,N/A,,Overcast,10,2013-10-20 19:53:00
1:27 PM,50.0,44.6,82,30.20,3.0,NNE,5.8,-,N/A,,Overcast,20,2013-10-20 20:27:00
1:53 PM,50.0,45.0,83,30.22,3.0,North,6.9,-,N/A,,Overcast,10,2013-10-20 20:53:00
2:53 PM,51.1,45.0,80,30.21,3.0,North,6.9,-,N/A,,Overcast,350,2013-10-20 21:53:00
3:53 PM,51.1,45.0,80,30.20,3.0,North,5.8,-,N/A,,Overcast,360,2013-10-20 22:53:00
4:53 PM,50.0,45.0,83,30.19,3.0,North,6.9,-,N/A,,Overcast,10,2013-10-20 23:53:00
5:53 PM,50.0,45.0,83,30.19,3.0,NE,6.9,-,N/A,,Overcast,40,2013-10-21 00:53:00
6:49 PM,50.0,44.6,82,30.16,3.0,NNE,5.8,-,N/A,,Overcast,20,2013-10-21 01:49:00
6:53 PM,50.0,45.0,83,30.19,3.0,NE,5.8,-,N/A,,Overcast,40,2013-10-21 01:53:00
7:53 PM,48.9,45.0,86,30.19,3.0,NNE,4.6,-,N/A,,Overcast,30,2013-10-21 02:53:00
8:16 PM,48.2,44.6,87,30.16,1.5,NNE,5.8,-,N/A,,Overcast,30,2013-10-21 03:16:00
8:53 PM,48.9,45.0,86,30.19,1.5,NNE,5.8,-,N/A,,Overcast,20,2013-10-21 03:53:00
9:07 PM,48.2,44.6,87,30.17,0.2,North,5.8,-,N/A,,Overcast,360,2013-10-21 04:07:00
9:53 PM,48.0,45.0,89,30.19,0.2,NNE,5.8,-,N/A,,Overcast,20,2013-10-21 04:53:00
10:53 PM,48.0,45.0,89,30.19,0.2,NNE,6.9,-,N/A,Fog,Fog,30,2013-10-21 05:53:00
11:53 PM,48.0,45.0,89,30.19,0.2,NNE,5.8,-,N/A,Fog,Fog,30,2013-10-21 06:53:00